Burdett, Canada
Current Conditions -  °F | °C
As of 2:00 AM on Monday 20 Oct 2014 (Local Time) from CYXH Reporting Station
Clear Clear  
Wind Chill: 44°   Ceiling: Unl
Heat Index: 48°   Visibility: 9mi
Dew Point: 39°   Wind: 9mph
Humidity: 71%   Direction: 220°SW
Pressure: 29.76"   Gusts: NA
Location:  49.82°N, 111.52°W
Report Text: CYXH 200800Z AUTO 22008KT 9SM CLR 09/04 A2976 RMK SLP078
Loading
Personal Weather Stations






























Interactive Weather Map
Tropical Storm Tracking
New forecast layout! Learn more

10-Day Weather Forecast

Advertisements
Track Severe Weather on mobile